sensor_id;sensor_type;location;lat;lon;timestamp;pressure;altitude;pressure_sealevel;temperature;humidity
23118;BME280;11728;50.624;6.014;2023-02-18T00:04:38;99095.19;;;10.61;100.00
23118;BME280;11728;50.624;6.014;2023-02-18T00:09:38;99097.81;;;10.62;100.00
23118;BME280;11728;50.624;6.014;2023-02-18T00:14:39;99104.88;;;10.62;100.00
23118;BME280;11728;50.624;6.014;2023-02-18T00:19:39;99113.66;;;10.64;100.00
23118;BME280;11728;50.624;6.014;2023-02-18T00:24:39;99103.97;;;10.64;100.00
23118;BME280;11728;50.624;6.014;2023-02-18T00:29:40;99101.38;;;10.61;100.00
23118;BME280;11728;50.624;6.014;2023-02-18T00:34:40;99092.53;;;10.64;100.00
23118;BME280;11728;50.624;6.014;2023-02-18T00:39:40;99069.66;;;10.61;100.00
23118;BME280;11728;50.624;6.014;2023-02-18T00:44:42;99069.66;;;10.60;100.00
23118;BME280;11728;50.624;6.014;2023-02-18T00:49:42;99066.13;;;10.61;100.00
23118;BME280;11728;50.624;6.014;2023-02-18T00:54:42;99055.63;;;10.58;100.00
23118;BME280;11728;50.624;6.014;2023-02-18T00:59:43;99040.63;;;10.61;100.00
23118;BME280;11728;50.624;6.014;2023-02-18T01:04:43;99021.25;;;10.59;100.00
23118;BME280;11728;50.624;6.014;2023-02-18T01:09:44;99023.00;;;10.59;100.00
23118;BME280;11728;50.624;6.014;2023-02-18T01:14:44;99015.09;;;10.59;100.00
23118;BME280;11728;50.624;6.014;2023-02-18T01:19:44;99029.16;;;10.61;100.00
23118;BME280;11728;50.624;6.014;2023-02-18T01:24:45;99009.78;;;10.62;100.00
23118;BME280;11728;50.624;6.014;2023-02-18T01:29:45;99018.59;;;10.61;100.00
23118;BME280;11728;50.624;6.014;2023-02-18T01:34:45;99004.50;;;10.62;100.00
23118;BME280;11728;50.624;6.014;2023-02-18T01:39:46;99000.13;;;10.59;100.00
23118;BME280;11728;50.624;6.014;2023-02-18T01:44:47;98992.25;;;10.58;100.00
23118;BME280;11728;50.624;6.014;2023-02-18T01:49:50;98997.53;;;10.58;100.00
23118;BME280;11728;50.624;6.014;2023-02-18T01:54:55;98994.91;;;10.55;100.00
23118;BME280;11728;50.624;6.014;2023-02-18T02:00:16;98995.78;;;10.54;100.00
23118;BME280;11728;50.624;6.014;2023-02-18T02:05:20;98991.41;;;10.54;100.00
23118;BME280;11728;50.624;6.014;2023-02-18T02:10:21;98993.16;;;10.54;100.00
23118;BME280;11728;50.624;6.014;2023-02-18T02:42:38;98954.47;;;10.48;100.00
23118;BME280;11728;50.624;6.014;2023-02-18T02:47:45;98939.59;;;10.43;100.00
23118;BME280;11728;50.624;6.014;2023-02-18T02:52:51;98945.78;;;10.40;100.00
23118;BME280;11728;50.624;6.014;2023-02-18T02:57:55;98935.28;;;10.36;100.00
23118;BME280;11728;50.624;6.014;2023-02-18T03:03:09;98927.41;;;10.30;100.00
23118;BME280;11728;50.624;6.014;2023-02-18T03:19:10;98909.91;;;10.23;100.00
23118;BME280;11728;50.624;6.014;2023-02-18T03:24:17;98887.03;;;10.23;100.00
23118;BME280;11728;50.624;6.014;2023-02-18T03:29:20;98887.88;;;10.25;100.00
23118;BME280;11728;50.624;6.014;2023-02-18T03:34:30;98880.88;;;10.23;100.00
23118;BME280;11728;50.624;6.014;2023-02-18T03:39:34;98883.56;;;10.20;100.00
23118;BME280;11728;50.624;6.014;2023-02-18T03:44:34;98886.19;;;10.21;100.00
23118;BME280;11728;50.624;6.014;2023-02-18T03:49:35;98891.47;;;10.21;100.00
23118;BME280;11728;50.624;6.014;2023-02-18T03:54:35;98901.16;;;10.21;100.00
23118;BME280;11728;50.624;6.014;2023-02-18T03:59:35;98887.13;;;10.17;100.00
23118;BME280;11728;50.624;6.014;2023-02-18T04:04:36;98878.28;;;10.18;100.00
23118;BME280;11728;50.624;6.014;2023-02-18T04:09:36;98882.78;;;10.12;100.00
23118;BME280;11728;50.624;6.014;2023-02-18T04:14:37;98880.16;;;10.09;100.00
23118;BME280;11728;50.624;6.014;2023-02-18T04:19:37;98867.84;;;10.08;100.00
23118;BME280;11728;50.624;6.014;2023-02-18T04:24:37;98858.19;;;10.08;100.00
23118;BME280;11728;50.624;6.014;2023-02-18T04:29:38;98857.34;;;10.05;100.00
23118;BME280;11728;50.624;6.014;2023-02-18T04:34:38;98859.09;;;10.06;100.00
23118;BME280;11728;50.624;6.014;2023-02-18T04:39:38;98852.00;;;10.11;100.00
23118;BME280;11728;50.624;6.014;2023-02-18T04:44:39;98852.00;;;10.11;100.00
23118;BME280;11728;50.624;6.014;2023-02-18T04:49:39;98844.88;;;10.16;100.00
23118;BME280;11728;50.624;6.014;2023-02-18T04:54:39;98833.44;;;10.17;100.00
23118;BME280;11728;50.624;6.014;2023-02-18T04:59:40;98843.19;;;10.12;100.00
23118;BME280;11728;50.624;6.014;2023-02-18T05:04:40;98836.13;;;10.12;100.00
23118;BME280;11728;50.624;6.014;2023-02-18T05:09:41;98822.94;;;10.12;100.00
23118;BME280;11728;50.624;6.014;2023-02-18T05:14:41;98830.00;;;10.12;100.00
23118;BME280;11728;50.624;6.014;2023-02-18T05:19:41;98829.13;;;10.13;100.00
23118;BME280;11728;50.624;6.014;2023-02-18T05:24:42;98825.59;;;10.12;100.00
23118;BME280;11728;50.624;6.014;2023-02-18T05:29:42;98834.41;;;10.13;100.00
23118;BME280;11728;50.624;6.014;2023-02-18T05:34:42;98826.53;;;10.08;100.00
23118;BME280;11728;50.624;6.014;2023-02-18T05:39:44;98832.75;;;10.03;100.00
23118;BME280;11728;50.624;6.014;2023-02-18T05:44:44;98845.06;;;10.01;100.00
23118;BME280;11728;50.624;6.014;2023-02-18T05:49:45;98846.84;;;10.00;100.00
23118;BME280;11728;50.624;6.014;2023-02-18T05:54:45;98842.44;;;9.96;100.00
23118;BME280;11728;50.624;6.014;2023-02-18T05:59:45;98840.78;;;9.91;100.00
23118;BME280;11728;50.624;6.014;2023-02-18T06:04:46;98818.75;;;9.92;100.00
23118;BME280;11728;50.624;6.014;2023-02-18T06:09:46;98824.09;;;9.89;100.00
23118;BME280;11728;50.624;6.014;2023-02-18T06:14:47;98818.81;;;9.89;100.00
23118;BME280;11728;50.624;6.014;2023-02-18T06:19:47;98812.66;;;9.87;100.00
23118;BME280;11728;50.624;6.014;2023-02-18T06:24:48;98803.06;;;9.83;100.00
23118;BME280;11728;50.624;6.014;2023-02-18T06:29:48;98798.66;;;9.81;100.00
23118;BME280;11728;50.624;6.014;2023-02-18T06:34:48;98786.47;;;9.75;100.00
23118;BME280;11728;50.624;6.014;2023-02-18T06:39:49;98802.28;;;9.74;100.00
23118;BME280;11728;50.624;6.014;2023-02-18T06:44:49;98780.31;;;9.73;100.00
23118;BME280;11728;50.624;6.014;2023-02-18T06:49:49;98773.34;;;9.68;100.00
23118;BME280;11728;50.624;6.014;2023-02-18T06:54:50;98783.06;;;9.66;100.00
23118;BME280;11728;50.624;6.014;2023-02-18T06:59:50;98771.63;;;9.62;100.00
23118;BME280;11728;50.624;6.014;2023-02-18T07:04:50;98760.22;;;9.65;100.00
23118;BME280;11728;50.624;6.014;2023-02-18T07:09:51;98750.53;;;9.65;100.00
23118;BME280;11728;50.624;6.014;2023-02-18T07:14:51;98767.28;;;9.61;100.00
23118;BME280;11728;50.624;6.014;2023-02-18T07:19:52;98760.22;;;9.63;100.00
23118;BME280;11728;50.624;6.014;2023-02-18T07:24:52;98789.22;;;9.65;100.00
23118;BME280;11728;50.624;6.014;2023-02-18T07:29:53;98809.38;;;9.69;100.00
23118;BME280;11728;50.624;6.014;2023-02-18T07:34:53;98808.53;;;9.65;100.00
23118;BME280;11728;50.624;6.014;2023-02-18T07:39:54;98810.28;;;9.66;100.00
23118;BME280;11728;50.624;6.014;2023-02-18T07:44:54;98820.97;;;9.54;100.00
23118;BME280;11728;50.624;6.014;2023-02-18T07:49:54;98813.13;;;9.47;100.00
23118;BME280;11728;50.624;6.014;2023-02-18T07:54:55;98834.22;;;9.47;100.00
23118;BME280;11728;50.624;6.014;2023-02-18T07:59:55;98817.50;;;9.48;100.00
23118;BME280;11728;50.624;6.014;2023-02-18T08:04:56;98840.41;;;9.44;100.00
23118;BME280;11728;50.624;6.014;2023-02-18T08:09:56;98856.22;;;9.44;100.00
23118;BME280;11728;50.624;6.014;2023-02-18T08:14:56;98837.75;;;9.44;100.00
23118;BME280;11728;50.624;6.014;2023-02-18T08:19:57;98852.63;;;9.51;100.00
23118;BME280;11728;50.624;6.014;2023-02-18T08:24:57;98849.06;;;9.55;100.00
23118;BME280;11728;50.624;6.014;2023-02-18T08:29:57;98855.25;;;9.54;100.00
23118;BME280;11728;50.624;6.014;2023-02-18T08:34:58;98850.81;;;9.58;100.00
23118;BME280;11728;50.624;6.014;2023-02-18T08:39:58;98857.81;;;9.60;100.00
23118;BME280;11728;50.624;6.014;2023-02-18T08:44:58;98862.19;;;9.61;100.00
23118;BME280;11728;50.624;6.014;2023-02-18T08:49:59;98859.50;;;9.64;100.00
23118;BME280;11728;50.624;6.014;2023-02-18T08:54:59;98860.38;;;9.69;100.00
23118;BME280;11728;50.624;6.014;2023-02-18T08:59:59;98859.44;;;9.73;100.00
23118;BME280;11728;50.624;6.014;2023-02-18T09:05:00;98853.22;;;9.79;100.00
23118;BME280;11728;50.624;6.014;2023-02-18T09:10:00;98868.13;;;9.83;100.00
23118;BME280;11728;50.624;6.014;2023-02-18T09:15:01;98868.22;;;9.72;100.00
23118;BME280;11728;50.624;6.014;2023-02-18T09:20:02;98870.94;;;9.63;100.00
23118;BME280;11728;50.624;6.014;2023-02-18T09:25:03;98877.13;;;9.64;100.00
23118;BME280;11728;50.624;6.014;2023-02-18T09:30:04;98848.09;;;9.62;100.00
23118;BME280;11728;50.624;6.014;2023-02-18T09:35:05;98858.66;;;9.64;100.00
23118;BME280;11728;50.624;6.014;2023-02-18T09:40:06;98858.53;;;9.74;100.00
23118;BME280;11728;50.624;6.014;2023-02-18T09:45:10;98848.75;;;9.84;100.00
23118;BME280;11728;50.624;6.014;2023-02-18T09:50:31;98859.28;;;9.88;100.00
23118;BME280;11728;50.624;6.014;2023-02-18T09:55:38;98859.25;;;9.91;100.00
23118;BME280;11728;50.624;6.014;2023-02-18T10:00:46;98847.81;;;9.91;100.00
23118;BME280;11728;50.624;6.014;2023-02-18T10:06:01;98836.41;;;9.90;100.00
23118;BME280;11728;50.624;6.014;2023-02-18T10:11:02;98849.63;;;9.86;100.00
23118;BME280;11728;50.624;6.014;2023-02-18T10:16:04;98844.41;;;9.81;100.00
23118;BME280;11728;50.624;6.014;2023-02-18T10:21:14;98837.34;;;9.83;100.00
23118;BME280;11728;50.624;6.014;2023-02-18T10:26:16;98848.84;;;9.78;100.00
23118;BME280;11728;50.624;6.014;2023-02-18T10:31:44;98840.94;;;9.76;100.00
23118;BME280;11728;50.624;6.014;2023-02-18T10:36:56;98839.25;;;9.71;100.00
23118;BME280;11728;50.624;6.014;2023-02-18T10:52:20;98833.06;;;9.73;100.00
23118;BME280;11728;50.624;6.014;2023-02-18T10:57:22;98825.16;;;9.72;100.00
23118;BME280;11728;50.624;6.014;2023-02-18T11:02:26;98823.44;;;9.68;100.00
23118;BME280;11728;50.624;6.014;2023-02-18T11:07:33;98831.38;;;9.66;100.00
23118;BME280;11728;50.624;6.014;2023-02-18T11:12:46;98840.09;;;9.71;100.00
23118;BME280;11728;50.624;6.014;2023-02-18T11:17:50;98835.75;;;9.69;100.00
23118;BME280;11728;50.624;6.014;2023-02-18T11:22:55;98831.41;;;9.65;100.00
23118;BME280;11728;50.624;6.014;2023-02-18T11:27:57;98829.63;;;9.65;100.00
23118;BME280;11728;50.624;6.014;2023-02-18T11:33:03;98822.66;;;9.61;100.00
23118;BME280;11728;50.624;6.014;2023-02-18T11:38:43;98836.69;;;9.62;100.00
23118;BME280;11728;50.624;6.014;2023-02-18T11:43:44;98839.31;;;9.65;100.00
23118;BME280;11728;50.624;6.014;2023-02-18T11:48:46;98834.94;;;9.64;100.00
23118;BME280;11728;50.624;6.014;2023-02-18T11:53:58;98834.81;;;9.71;100.00
23118;BME280;11728;50.624;6.014;2023-02-18T11:59:00;98830.31;;;9.81;100.00
23118;BME280;11728;50.624;6.014;2023-02-18T12:04:18;98828.56;;;9.81;100.00
23118;BME280;11728;50.624;6.014;2023-02-18T12:09:37;98811.88;;;9.82;100.00
23118;BME280;11728;50.624;6.014;2023-02-18T12:14:39;98818.03;;;9.81;100.00
23118;BME280;11728;50.624;6.014;2023-02-18T12:41:11;98822.41;;;9.81;100.00
23118;BME280;11728;50.624;6.014;2023-02-18T13:08:17;98815.38;;;9.84;100.00
23118;BME280;11728;50.624;6.014;2023-02-18T13:13:24;98834.63;;;9.89;100.00
23118;BME280;11728;50.624;6.014;2023-02-18T13:18:37;98824.09;;;9.89;100.00
23118;BME280;11728;50.624;6.014;2023-02-18T13:23:45;98816.97;;;9.94;100.00
23118;BME280;11728;50.624;6.014;2023-02-18T13:34:12;98825.88;;;9.87;100.00
23118;BME280;11728;50.624;6.014;2023-02-18T13:39:18;98811.75;;;9.91;100.00
23118;BME280;11728;50.624;6.014;2023-02-18T13:49:22;98826.66;;;9.95;100.00
23118;BME280;11728;50.624;6.014;2023-02-18T13:54:28;98818.75;;;9.98;100.00
23118;BME280;11728;50.624;6.014;2023-02-18T13:59:34;98813.44;;;9.99;100.00
23118;BME280;11728;50.624;6.014;2023-02-18T14:09:41;98811.69;;;9.97;100.00
23118;BME280;11728;50.624;6.014;2023-02-18T14:14:43;98814.31;;;10.01;100.00
23118;BME280;11728;50.624;6.014;2023-02-18T14:25:13;98807.13;;;10.11;100.00
23118;BME280;11728;50.624;6.014;2023-02-18T14:30:19;98812.44;;;10.08;100.00
23118;BME280;11728;50.624;6.014;2023-02-18T14:35:42;98809.78;;;10.11;100.00
23118;BME280;11728;50.624;6.014;2023-02-18T14:51:08;98813.28;;;10.13;100.00
23118;BME280;11728;50.624;6.014;2023-02-18T14:56:12;98818.59;;;10.10;100.00
23118;BME280;11728;50.624;6.014;2023-02-18T15:01:22;98818.59;;;10.10;100.00
23118;BME280;11728;50.624;6.014;2023-02-18T15:11:35;98817.72;;;10.08;100.00
23118;BME280;11728;50.624;6.014;2023-02-18T15:16:37;98805.41;;;10.08;100.00
23118;BME280;11728;50.624;6.014;2023-02-18T15:21:41;98809.00;;;10.03;100.00
23118;BME280;11728;50.624;6.014;2023-02-18T15:26:45;98802.84;;;10.04;100.00
23118;BME280;11728;50.624;6.014;2023-02-18T15:31:48;98801.94;;;10.05;100.00
23118;BME280;11728;50.624;6.014;2023-02-18T15:36:50;98796.66;;;10.03;100.00
23118;BME280;11728;50.624;6.014;2023-02-18T15:41:54;98793.13;;;10.07;100.00
23118;BME280;11728;50.624;6.014;2023-02-18T15:46:59;98808.06;;;10.07;100.00
23118;BME280;11728;50.624;6.014;2023-02-18T15:52:01;98800.22;;;10.02;100.00
23118;BME280;11728;50.624;6.014;2023-02-18T15:57:02;98802.00;;;10.00;100.00
23118;BME280;11728;50.624;6.014;2023-02-18T16:02:21;98787.03;;;9.96;100.00
23118;BME280;11728;50.624;6.014;2023-02-18T16:07:24;98794.09;;;9.96;100.00
23118;BME280;11728;50.624;6.014;2023-02-18T16:12:30;98787.06;;;9.95;100.00
23118;BME280;11728;50.624;6.014;2023-02-18T16:17:31;98790.59;;;9.94;100.00
23118;BME280;11728;50.624;6.014;2023-02-18T16:27:45;98779.19;;;9.93;100.00
23118;BME280;11728;50.624;6.014;2023-02-18T16:32:46;98778.34;;;9.90;100.00
23118;BME280;11728;50.624;6.014;2023-02-18T16:37:47;98788.94;;;9.87;100.00
23118;BME280;11728;50.624;6.014;2023-02-18T16:42:49;98784.59;;;9.83;100.00
23118;BME280;11728;50.624;6.014;2023-02-18T16:47:50;98797.75;;;9.85;100.00
23118;BME280;11728;50.624;6.014;2023-02-18T16:52:50;98800.41;;;9.82;100.00
23118;BME280;11728;50.624;6.014;2023-02-18T16:57:50;98803.06;;;9.83;100.00
23118;BME280;11728;50.624;6.014;2023-02-18T17:02:53;98805.66;;;9.85;100.00
23118;BME280;11728;50.624;6.014;2023-02-18T17:08:14;98806.53;;;9.85;100.00
23118;BME280;11728;50.624;6.014;2023-02-18T17:13:17;98799.53;;;9.84;100.00
23118;BME280;11728;50.624;6.014;2023-02-18T17:18:18;98803.06;;;9.82;100.00
23118;BME280;11728;50.624;6.014;2023-02-18T17:23:23;98809.22;;;9.82;100.00
23118;BME280;11728;50.624;6.014;2023-02-18T17:28:23;98807.47;;;9.84;100.00
23118;BME280;11728;50.624;6.014;2023-02-18T17:33:24;98808.28;;;9.86;100.00
23118;BME280;11728;50.624;6.014;2023-02-18T17:38:25;98810.91;;;9.86;100.00
23118;BME280;11728;50.624;6.014;2023-02-18T17:43:25;98806.53;;;9.85;100.00
23118;BME280;11728;50.624;6.014;2023-02-18T17:48:26;98809.16;;;9.85;100.00
23118;BME280;11728;50.624;6.014;2023-02-18T17:53:27;98812.69;;;9.86;100.00
23118;BME280;11728;50.624;6.014;2023-02-18T17:58:27;98808.34;;;9.83;100.00
23118;BME280;11728;50.624;6.014;2023-02-18T18:03:28;98798.69;;;9.82;100.00
23118;BME280;11728;50.624;6.014;2023-02-18T18:08:28;98802.19;;;9.83;100.00
23118;BME280;11728;50.624;6.014;2023-02-18T18:13:31;98799.53;;;9.84;100.00
23118;BME280;11728;50.624;6.014;2023-02-18T18:18:31;98808.28;;;9.86;100.00
23118;BME280;11728;50.624;6.014;2023-02-18T18:23:31;98800.41;;;9.85;100.00
23118;BME280;11728;50.624;6.014;2023-02-18T18:28:33;98800.38;;;9.86;100.00
23118;BME280;11728;50.624;6.014;2023-02-18T18:33:33;98808.31;;;9.85;100.00
23118;BME280;11728;50.624;6.014;2023-02-18T18:38:33;98796.91;;;9.84;100.00
23118;BME280;11728;50.624;6.014;2023-02-18T18:43:34;98797.72;;;9.86;100.00
23118;BME280;11728;50.624;6.014;2023-02-18T18:48:36;98792.44;;;9.89;100.00
23118;BME280;11728;50.624;6.014;2023-02-18T18:53:36;98785.41;;;9.88;100.00
23118;BME280;11728;50.624;6.014;2023-02-18T18:58:37;98780.13;;;9.88;100.00
23118;BME280;11728;50.624;6.014;2023-02-18T19:03:37;98786.28;;;9.87;100.00
23118;BME280;11728;50.624;6.014;2023-02-18T19:08:39;98783.66;;;9.87;100.00
23118;BME280;11728;50.624;6.014;2023-02-18T19:13:39;98781.91;;;9.86;100.00
23118;BME280;11728;50.624;6.014;2023-02-18T19:18:40;98783.69;;;9.86;100.00
23118;BME280;11728;50.624;6.014;2023-02-18T19:23:40;98780.16;;;9.85;100.00
23118;BME280;11728;50.624;6.014;2023-02-18T19:28:41;98780.16;;;9.85;100.00
23118;BME280;11728;50.624;6.014;2023-02-18T19:33:42;98776.63;;;9.86;100.00
23118;BME280;11728;50.624;6.014;2023-02-18T19:38:44;98772.25;;;9.87;100.00
23118;BME280;11728;50.624;6.014;2023-02-18T19:43:45;98771.34;;;9.86;100.00
23118;BME280;11728;50.624;6.014;2023-02-18T19:48:49;98765.25;;;9.84;100.00
23118;BME280;11728;50.624;6.014;2023-02-18T19:53:51;98751.16;;;9.85;100.00
23118;BME280;11728;50.624;6.014;2023-02-18T19:58:54;98753.78;;;9.87;100.00
23118;BME280;11728;50.624;6.014;2023-02-18T20:03:55;98744.97;;;9.86;100.00
23118;BME280;11728;50.624;6.014;2023-02-18T20:08:56;98748.50;;;9.85;100.00
23118;BME280;11728;50.624;6.014;2023-02-18T20:13:56;98752.06;;;9.84;100.00
23118;BME280;11728;50.624;6.014;2023-02-18T20:18:56;98744.16;;;9.84;100.00
23118;BME280;11728;50.624;6.014;2023-02-18T20:23:58;98730.03;;;9.87;100.00
23118;BME280;11728;50.624;6.014;2023-02-18T20:28:59;98729.22;;;9.83;100.00
23118;BME280;11728;50.624;6.014;2023-02-18T20:33:59;98729.16;;;9.86;100.00
23118;BME280;11728;50.624;6.014;2023-02-18T20:39:00;98722.13;;;9.87;100.00
23118;BME280;11728;50.624;6.014;2023-02-18T20:44:00;98722.13;;;9.87;100.00
23118;BME280;11728;50.624;6.014;2023-02-18T20:49:01;98727.38;;;9.88;100.00
23118;BME280;11728;50.624;6.014;2023-02-18T20:54:04;98716.81;;;9.88;100.00
23118;BME280;11728;50.624;6.014;2023-02-18T20:59:11;98697.50;;;9.86;100.00
23118;BME280;11728;50.624;6.014;2023-02-18T21:04:14;98699.31;;;9.84;100.00
23118;BME280;11728;50.624;6.014;2023-02-18T21:09:16;98698.41;;;9.84;100.00
23118;BME280;11728;50.624;6.014;2023-02-18T21:14:16;98701.94;;;9.83;100.00
23118;BME280;11728;50.624;6.014;2023-02-18T21:19:17;98701.09;;;9.82;100.00
23118;BME280;11728;50.624;6.014;2023-02-18T21:24:17;98692.28;;;9.83;100.00
23118;BME280;11728;50.624;6.014;2023-02-18T21:29:17;98692.28;;;9.83;100.00
23118;BME280;11728;50.624;6.014;2023-02-18T21:34:18;98695.69;;;9.91;100.00
23118;BME280;11728;50.624;6.014;2023-02-18T21:39:18;98694.91;;;9.85;100.00
23118;BME280;11728;50.624;6.014;2023-02-18T21:44:18;98691.44;;;9.81;100.00
23118;BME280;11728;50.624;6.014;2023-02-18T21:49:19;98689.69;;;9.80;100.00
23118;BME280;11728;50.624;6.014;2023-02-18T21:54:26;98694.06;;;9.81;100.00
23118;BME280;11728;50.624;6.014;2023-02-18T21:59:28;98688.78;;;9.81;100.00
23118;BME280;11728;50.624;6.014;2023-02-18T22:04:30;98681.75;;;9.83;100.00
23118;BME280;11728;50.624;6.014;2023-02-18T22:09:31;98689.66;;;9.83;100.00
23118;BME280;11728;50.624;6.014;2023-02-18T22:14:31;98690.50;;;9.84;100.00
23118;BME280;11728;50.624;6.014;2023-02-18T22:19:32;98682.59;;;9.84;100.00
23118;BME280;11728;50.624;6.014;2023-02-18T22:24:32;98679.06;;;9.85;100.00
23118;BME280;11728;50.624;6.014;2023-02-18T22:29:33;98683.47;;;9.86;100.00
23118;BME280;11728;50.624;6.014;2023-02-18T22:34:33;98664.09;;;9.85;100.00
23118;BME280;11728;50.624;6.014;2023-02-18T22:39:34;98664.09;;;9.85;100.00
23118;BME280;11728;50.624;6.014;2023-02-18T22:44:34;98655.34;;;9.85;100.00
23118;BME280;11728;50.624;6.014;2023-02-18T22:49:34;98630.72;;;9.86;100.00
23118;BME280;11728;50.624;6.014;2023-02-18T22:54:35;98630.75;;;9.84;100.00
23118;BME280;11728;50.624;6.014;2023-02-18T22:59:35;98662.31;;;9.87;100.00
23118;BME280;11728;50.624;6.014;2023-02-18T23:04:37;98670.22;;;9.89;100.00
23118;BME280;11728;50.624;6.014;2023-02-18T23:09:38;98665.81;;;9.89;100.00
23118;BME280;11728;50.624;6.014;2023-02-18T23:14:38;98676.31;;;9.92;100.00
23118;BME280;11728;50.624;6.014;2023-02-18T23:19:43;98664.03;;;9.91;100.00
23118;BME280;11728;50.624;6.014;2023-02-18T23:24:44;98682.50;;;9.91;100.00
23118;BME280;11728;50.624;6.014;2023-02-18T23:29:45;98687.75;;;9.93;100.00
23118;BME280;11728;50.624;6.014;2023-02-18T23:34:45;98679.81;;;9.94;100.00
23118;BME280;11728;50.624;6.014;2023-02-18T23:39:48;98669.25;;;9.94;100.00
23118;BME280;11728;50.624;6.014;2023-02-18T23:44:48;98666.59;;;9.95;100.00
23118;BME280;11728;50.624;6.014;2023-02-18T23:49:52;98664.91;;;9.92;100.00
23118;BME280;11728;50.624;6.014;2023-02-18T23:54:52;98664.94;;;9.90;100.00
23118;BME280;11728;50.624;6.014;2023-02-18T23:59:53;98669.31;;;9.90;100.00
